sensor_id;sensor_type;location;lat;lon;timestamp;P1;durP1;ratioP1;P2;durP2;ratioP2
42514;SDS011;28144;49.920;18.730;2023-05-18T00:01:19;52.80;;;22.67;;
42514;SDS011;28144;49.920;18.730;2023-05-18T00:03:44;53.90;;;23.00;;
42514;SDS011;28144;49.920;18.730;2023-05-18T00:06:11;36.07;;;17.73;;
42514;SDS011;28144;49.920;18.730;2023-05-18T00:08:38;26.15;;;12.52;;
42514;SDS011;28144;49.920;18.730;2023-05-18T00:11:04;33.23;;;15.27;;
42514;SDS011;28144;49.920;18.730;2023-05-18T00:13:31;32.40;;;16.57;;
42514;SDS011;28144;49.920;18.730;2023-05-18T00:15:57;32.00;;;17.33;;
42514;SDS011;28144;49.920;18.730;2023-05-18T00:18:23;27.23;;;15.30;;
42514;SDS011;28144;49.920;18.730;2023-05-18T00:20:51;31.80;;;15.77;;
42514;SDS011;28144;49.920;18.730;2023-05-18T00:23:29;32.30;;;17.50;;
42514;SDS011;28144;49.920;18.730;2023-05-18T00:25:57;31.83;;;15.07;;
42514;SDS011;28144;49.920;18.730;2023-05-18T00:28:23;29.15;;;14.32;;
42514;SDS011;28144;49.920;18.730;2023-05-18T00:30:50;63.03;;;30.92;;
42514;SDS011;28144;49.920;18.730;2023-05-18T00:33:16;51.73;;;24.00;;
42514;SDS011;28144;49.920;18.730;2023-05-18T00:35:41;40.87;;;21.30;;
42514;SDS011;28144;49.920;18.730;2023-05-18T00:38:07;40.67;;;17.77;;
42514;SDS011;28144;49.920;18.730;2023-05-18T00:40:33;35.17;;;14.67;;
42514;SDS011;28144;49.920;18.730;2023-05-18T00:42:58;71.07;;;32.67;;
42514;SDS011;28144;49.920;18.730;2023-05-18T00:45:25;33.63;;;14.93;;
42514;SDS011;28144;49.920;18.730;2023-05-18T00:47:51;31.30;;;15.13;;
42514;SDS011;28144;49.920;18.730;2023-05-18T00:50:17;46.10;;;20.23;;
42514;SDS011;28144;49.920;18.730;2023-05-18T00:52:43;35.33;;;15.27;;
42514;SDS011;28144;49.920;18.730;2023-05-18T00:55:10;37.23;;;17.80;;
42514;SDS011;28144;49.920;18.730;2023-05-18T00:57:37;29.60;;;15.50;;
42514;SDS011;28144;49.920;18.730;2023-05-18T01:00:06;24.77;;;11.43;;
42514;SDS011;28144;49.920;18.730;2023-05-18T01:02:35;27.67;;;11.80;;
42514;SDS011;28144;49.920;18.730;2023-05-18T01:05:07;25.37;;;11.00;;
42514;SDS011;28144;49.920;18.730;2023-05-18T01:07:38;32.23;;;13.73;;
42514;SDS011;28144;49.920;18.730;2023-05-18T01:10:07;24.93;;;12.93;;
42514;SDS011;28144;49.920;18.730;2023-05-18T01:15:25;38.93;;;18.37;;
42514;SDS011;28144;49.920;18.730;2023-05-18T01:20:46;37.17;;;16.10;;
42514;SDS011;28144;49.920;18.730;2023-05-18T01:28:20;49.57;;;20.60;;
42514;SDS011;28144;49.920;18.730;2023-05-18T01:30:51;49.20;;;19.53;;
42514;SDS011;28144;49.920;18.730;2023-05-18T01:33:17;29.13;;;13.23;;
42514;SDS011;28144;49.920;18.730;2023-05-18T01:35:43;22.90;;;10.80;;
42514;SDS011;28144;49.920;18.730;2023-05-18T01:38:16;26.27;;;12.67;;
42514;SDS011;28144;49.920;18.730;2023-05-18T01:43:41;29.27;;;13.13;;
42514;SDS011;28144;49.920;18.730;2023-05-18T01:46:35;29.23;;;13.27;;
42514;SDS011;28144;49.920;18.730;2023-05-18T01:49:32;24.00;;;12.57;;
42514;SDS011;28144;49.920;18.730;2023-05-18T01:52:22;28.27;;;10.67;;
42514;SDS011;28144;49.920;18.730;2023-05-18T01:54:51;24.37;;;11.23;;
42514;SDS011;28144;49.920;18.730;2023-05-18T01:57:19;24.77;;;9.93;;
42514;SDS011;28144;49.920;18.730;2023-05-18T01:59:48;25.90;;;10.80;;
42514;SDS011;28144;49.920;18.730;2023-05-18T02:02:15;40.00;;;15.77;;
42514;SDS011;28144;49.920;18.730;2023-05-18T02:04:41;31.00;;;11.65;;
42514;SDS011;28144;49.920;18.730;2023-05-18T02:07:07;24.60;;;10.93;;
42514;SDS011;28144;49.920;18.730;2023-05-18T02:09:33;33.53;;;12.30;;
42514;SDS011;28144;49.920;18.730;2023-05-18T02:11:59;32.13;;;12.35;;
42514;SDS011;28144;49.920;18.730;2023-05-18T02:14:25;33.63;;;14.00;;
42514;SDS011;28144;49.920;18.730;2023-05-18T02:16:50;29.20;;;13.32;;
42514;SDS011;28144;49.920;18.730;2023-05-18T02:19:17;30.40;;;11.90;;
42514;SDS011;28144;49.920;18.730;2023-05-18T02:21:44;18.60;;;9.60;;
42514;SDS011;28144;49.920;18.730;2023-05-18T02:24:10;26.47;;;10.33;;
42514;SDS011;28144;49.920;18.730;2023-05-18T02:29:05;20.85;;;9.27;;
42514;SDS011;28144;49.920;18.730;2023-05-18T02:31:33;24.60;;;9.30;;
42514;SDS011;28144;49.920;18.730;2023-05-18T02:34:00;33.50;;;11.63;;
42514;SDS011;28144;49.920;18.730;2023-05-18T02:36:26;16.38;;;7.32;;
42514;SDS011;28144;49.920;18.730;2023-05-18T02:38:51;26.53;;;11.23;;
42514;SDS011;28144;49.920;18.730;2023-05-18T02:41:17;44.97;;;18.33;;
42514;SDS011;28144;49.920;18.730;2023-05-18T02:43:43;31.73;;;10.93;;
42514;SDS011;28144;49.920;18.730;2023-05-18T02:46:09;45.87;;;16.03;;
42514;SDS011;28144;49.920;18.730;2023-05-18T02:48:34;21.43;;;7.97;;
42514;SDS011;28144;49.920;18.730;2023-05-18T02:51:00;18.90;;;8.45;;
42514;SDS011;28144;49.920;18.730;2023-05-18T02:53:26;29.47;;;10.93;;
42514;SDS011;28144;49.920;18.730;2023-05-18T02:55:55;31.70;;;12.63;;
42514;SDS011;28144;49.920;18.730;2023-05-18T02:58:27;33.03;;;13.03;;
42514;SDS011;28144;49.920;18.730;2023-05-18T03:00:53;42.45;;;8.88;;
42514;SDS011;28144;49.920;18.730;2023-05-18T03:03:23;33.07;;;12.70;;
42514;SDS011;28144;49.920;18.730;2023-05-18T03:05:50;21.33;;;8.15;;
42514;SDS011;28144;49.920;18.730;2023-05-18T03:08:19;30.30;;;10.83;;
42514;SDS011;28144;49.920;18.730;2023-05-18T03:10:45;26.77;;;8.30;;
42514;SDS011;28144;49.920;18.730;2023-05-18T03:13:11;22.23;;;8.30;;
42514;SDS011;28144;49.920;18.730;2023-05-18T03:15:37;26.07;;;8.73;;
42514;SDS011;28144;49.920;18.730;2023-05-18T03:18:03;22.48;;;8.35;;
42514;SDS011;28144;49.920;18.730;2023-05-18T03:20:29;23.60;;;8.90;;
42514;SDS011;28144;49.920;18.730;2023-05-18T03:22:55;22.35;;;8.32;;
42514;SDS011;28144;49.920;18.730;2023-05-18T03:25:22;28.70;;;10.20;;
42514;SDS011;28144;49.920;18.730;2023-05-18T03:27:52;36.47;;;10.10;;
42514;SDS011;28144;49.920;18.730;2023-05-18T03:30:18;39.03;;;15.13;;
42514;SDS011;28144;49.920;18.730;2023-05-18T03:32:47;30.27;;;11.70;;
42514;SDS011;28144;49.920;18.730;2023-05-18T03:35:13;37.20;;;13.97;;
42514;SDS011;28144;49.920;18.730;2023-05-18T03:37:39;31.50;;;14.32;;
42514;SDS011;28144;49.920;18.730;2023-05-18T03:42:38;29.67;;;12.93;;
42514;SDS011;28144;49.920;18.730;2023-05-18T03:45:06;33.65;;;10.45;;
42514;SDS011;28144;49.920;18.730;2023-05-18T03:47:32;33.97;;;8.00;;
42514;SDS011;28144;49.920;18.730;2023-05-18T03:49:58;33.63;;;10.00;;
42514;SDS011;28144;49.920;18.730;2023-05-18T03:52:24;29.00;;;10.33;;
42514;SDS011;28144;49.920;18.730;2023-05-18T03:54:50;28.05;;;11.98;;
42514;SDS011;28144;49.920;18.730;2023-05-18T03:57:16;26.93;;;9.77;;
42514;SDS011;28144;49.920;18.730;2023-05-18T03:59:42;29.00;;;11.00;;
42514;SDS011;28144;49.920;18.730;2023-05-18T04:02:09;29.67;;;10.13;;
42514;SDS011;28144;49.920;18.730;2023-05-18T04:04:35;28.77;;;10.17;;
42514;SDS011;28144;49.920;18.730;2023-05-18T04:07:02;32.95;;;10.70;;
42514;SDS011;28144;49.920;18.730;2023-05-18T04:09:30;27.63;;;9.97;;
42514;SDS011;28144;49.920;18.730;2023-05-18T04:11:57;31.85;;;10.82;;
42514;SDS011;28144;49.920;18.730;2023-05-18T04:14:23;26.03;;;9.43;;
42514;SDS011;28144;49.920;18.730;2023-05-18T04:16:52;40.77;;;16.87;;
42514;SDS011;28144;49.920;18.730;2023-05-18T04:19:18;26.55;;;9.82;;
42514;SDS011;28144;49.920;18.730;2023-05-18T04:24:12;38.78;;;12.85;;
42514;SDS011;28144;49.920;18.730;2023-05-18T04:29:04;16.67;;;6.50;;
42514;SDS011;28144;49.920;18.730;2023-05-18T04:31:32;27.40;;;8.10;;
42514;SDS011;28144;49.920;18.730;2023-05-18T04:33:59;26.83;;;9.50;;
42514;SDS011;28144;49.920;18.730;2023-05-18T04:36:25;23.27;;;7.70;;
42514;SDS011;28144;49.920;18.730;2023-05-18T04:38:55;31.90;;;7.83;;
42514;SDS011;28144;49.920;18.730;2023-05-18T04:41:23;25.17;;;9.00;;
42514;SDS011;28144;49.920;18.730;2023-05-18T04:43:49;28.45;;;8.55;;
42514;SDS011;28144;49.920;18.730;2023-05-18T04:46:16;31.03;;;9.27;;
42514;SDS011;28144;49.920;18.730;2023-05-18T04:48:42;22.13;;;5.35;;
42514;SDS011;28144;49.920;18.730;2023-05-18T04:51:08;24.67;;;7.97;;
42514;SDS011;28144;49.920;18.730;2023-05-18T04:53:34;22.40;;;8.35;;
42514;SDS011;28144;49.920;18.730;2023-05-18T04:56:03;30.37;;;9.83;;
42514;SDS011;28144;49.920;18.730;2023-05-18T04:58:29;22.05;;;8.52;;
42514;SDS011;28144;49.920;18.730;2023-05-18T05:00:55;30.37;;;10.30;;
42514;SDS011;28144;49.920;18.730;2023-05-18T05:03:21;25.65;;;7.75;;
42514;SDS011;28144;49.920;18.730;2023-05-18T05:05:47;24.53;;;9.73;;
42514;SDS011;28144;49.920;18.730;2023-05-18T05:08:13;18.47;;;8.73;;
42514;SDS011;28144;49.920;18.730;2023-05-18T05:13:06;35.53;;;10.23;;
42514;SDS011;28144;49.920;18.730;2023-05-18T05:15:31;22.67;;;6.50;;
42514;SDS011;28144;49.920;18.730;2023-05-18T05:20:24;35.27;;;13.47;;
42514;SDS011;28144;49.920;18.730;2023-05-18T05:22:49;29.97;;;10.27;;
42514;SDS011;28144;49.920;18.730;2023-05-18T05:25:15;34.63;;;12.07;;
42514;SDS011;28144;49.920;18.730;2023-05-18T05:27:41;23.77;;;8.57;;
42514;SDS011;28144;49.920;18.730;2023-05-18T05:30:07;29.67;;;10.03;;
42514;SDS011;28144;49.920;18.730;2023-05-18T05:32:33;26.33;;;9.50;;
42514;SDS011;28144;49.920;18.730;2023-05-18T05:37:25;18.80;;;8.45;;
42514;SDS011;28144;49.920;18.730;2023-05-18T05:39:52;16.35;;;5.93;;
42514;SDS011;28144;49.920;18.730;2023-05-18T05:42:18;34.77;;;9.80;;
42514;SDS011;28144;49.920;18.730;2023-05-18T05:44:43;23.33;;;9.77;;
42514;SDS011;28144;49.920;18.730;2023-05-18T05:47:09;22.67;;;7.40;;
42514;SDS011;28144;49.920;18.730;2023-05-18T05:49:35;24.77;;;11.10;;
42514;SDS011;28144;49.920;18.730;2023-05-18T05:52:01;20.30;;;9.15;;
42514;SDS011;28144;49.920;18.730;2023-05-18T05:54:27;30.67;;;7.83;;
42514;SDS011;28144;49.920;18.730;2023-05-18T05:56:53;31.97;;;9.77;;
42514;SDS011;28144;49.920;18.730;2023-05-18T05:59:18;25.73;;;9.10;;
42514;SDS011;28144;49.920;18.730;2023-05-18T06:01:44;24.83;;;9.07;;
42514;SDS011;28144;49.920;18.730;2023-05-18T06:04:10;34.43;;;9.53;;
42514;SDS011;28144;49.920;18.730;2023-05-18T06:09:03;19.10;;;7.75;;
42514;SDS011;28144;49.920;18.730;2023-05-18T06:11:29;22.55;;;9.25;;
42514;SDS011;28144;49.920;18.730;2023-05-18T06:13:55;40.85;;;12.93;;
42514;SDS011;28144;49.920;18.730;2023-05-18T06:16:21;27.97;;;11.03;;
42514;SDS011;28144;49.920;18.730;2023-05-18T06:18:47;50.23;;;18.37;;
42514;SDS011;28144;49.920;18.730;2023-05-18T06:21:14;35.85;;;10.07;;
42514;SDS011;28144;49.920;18.730;2023-05-18T06:23:40;28.33;;;9.02;;
42514;SDS011;28144;49.920;18.730;2023-05-18T06:26:06;14.85;;;6.40;;
42514;SDS011;28144;49.920;18.730;2023-05-18T06:28:31;25.90;;;10.20;;
42514;SDS011;28144;49.920;18.730;2023-05-18T06:30:57;26.08;;;8.73;;
42514;SDS011;28144;49.920;18.730;2023-05-18T06:33:23;26.07;;;10.07;;
42514;SDS011;28144;49.920;18.730;2023-05-18T06:35:49;29.30;;;9.35;;
42514;SDS011;28144;49.920;18.730;2023-05-18T06:38:15;24.97;;;10.60;;
42514;SDS011;28144;49.920;18.730;2023-05-18T06:40:41;20.77;;;9.03;;
42514;SDS011;28144;49.920;18.730;2023-05-18T06:43:06;23.03;;;9.10;;
42514;SDS011;28144;49.920;18.730;2023-05-18T06:45:32;24.57;;;7.83;;
42514;SDS011;28144;49.920;18.730;2023-05-18T06:47:58;26.73;;;8.87;;
42514;SDS011;28144;49.920;18.730;2023-05-18T06:50:24;29.57;;;11.47;;
42514;SDS011;28144;49.920;18.730;2023-05-18T06:52:49;23.10;;;8.37;;
42514;SDS011;28144;49.920;18.730;2023-05-18T06:55:16;28.02;;;9.00;;
42514;SDS011;28144;49.920;18.730;2023-05-18T06:57:41;19.93;;;7.67;;
42514;SDS011;28144;49.920;18.730;2023-05-18T07:00:07;23.33;;;8.13;;
42514;SDS011;28144;49.920;18.730;2023-05-18T07:02:34;27.13;;;9.77;;
42514;SDS011;28144;49.920;18.730;2023-05-18T07:05:00;29.05;;;10.77;;
42514;SDS011;28144;49.920;18.730;2023-05-18T07:07:29;34.40;;;10.83;;
42514;SDS011;28144;49.920;18.730;2023-05-18T07:09:55;23.27;;;10.55;;
42514;SDS011;28144;49.920;18.730;2023-05-18T07:12:21;26.30;;;8.97;;
42514;SDS011;28144;49.920;18.730;2023-05-18T07:14:47;14.27;;;5.80;;
42514;SDS011;28144;49.920;18.730;2023-05-18T07:17:13;18.50;;;6.67;;
42514;SDS011;28144;49.920;18.730;2023-05-18T07:19:39;54.45;;;24.50;;
42514;SDS011;28144;49.920;18.730;2023-05-18T07:22:05;16.77;;;5.97;;
42514;SDS011;28144;49.920;18.730;2023-05-18T07:24:32;15.73;;;5.18;;
42514;SDS011;28144;49.920;18.730;2023-05-18T07:26:57;24.40;;;7.10;;
42514;SDS011;28144;49.920;18.730;2023-05-18T07:29:23;13.32;;;4.93;;
42514;SDS011;28144;49.920;18.730;2023-05-18T07:31:49;14.03;;;3.97;;
42514;SDS011;28144;49.920;18.730;2023-05-18T07:34:15;16.63;;;4.83;;
42514;SDS011;28144;49.920;18.730;2023-05-18T07:36:40;10.27;;;3.50;;
42514;SDS011;28144;49.920;18.730;2023-05-18T07:39:06;11.50;;;3.07;;
42514;SDS011;28144;49.920;18.730;2023-05-18T07:41:33;14.23;;;4.07;;
42514;SDS011;28144;49.920;18.730;2023-05-18T07:43:59;16.97;;;6.17;;
42514;SDS011;28144;49.920;18.730;2023-05-18T07:46:24;20.63;;;3.60;;
42514;SDS011;28144;49.920;18.730;2023-05-18T07:48:50;8.40;;;4.10;;
42514;SDS011;28144;49.920;18.730;2023-05-18T07:51:16;11.93;;;3.73;;
42514;SDS011;28144;49.920;18.730;2023-05-18T07:53:42;14.13;;;4.50;;
42514;SDS011;28144;49.920;18.730;2023-05-18T07:56:10;10.07;;;4.37;;
42514;SDS011;28144;49.920;18.730;2023-05-18T07:58:35;20.03;;;5.03;;
42514;SDS011;28144;49.920;18.730;2023-05-18T08:01:02;12.27;;;3.33;;
42514;SDS011;28144;49.920;18.730;2023-05-18T08:03:29;17.33;;;3.78;;
42514;SDS011;28144;49.920;18.730;2023-05-18T08:05:55;6.47;;;2.83;;
42514;SDS011;28144;49.920;18.730;2023-05-18T08:08:21;14.68;;;3.75;;
42514;SDS011;28144;49.920;18.730;2023-05-18T08:10:47;13.37;;;4.73;;
42514;SDS011;28144;49.920;18.730;2023-05-18T08:13:13;9.43;;;2.60;;
42514;SDS011;28144;49.920;18.730;2023-05-18T08:15:38;11.07;;;4.20;;
42514;SDS011;28144;49.920;18.730;2023-05-18T08:18:05;13.33;;;2.90;;
42514;SDS011;28144;49.920;18.730;2023-05-18T08:20:31;16.27;;;4.00;;
42514;SDS011;28144;49.920;18.730;2023-05-18T08:22:57;27.43;;;9.33;;
42514;SDS011;28144;49.920;18.730;2023-05-18T08:25:22;14.30;;;3.13;;
42514;SDS011;28144;49.920;18.730;2023-05-18T08:27:49;12.60;;;3.92;;
42514;SDS011;28144;49.920;18.730;2023-05-18T08:30:15;14.47;;;5.73;;
42514;SDS011;28144;49.920;18.730;2023-05-18T08:32:41;10.95;;;3.08;;
42514;SDS011;28144;49.920;18.730;2023-05-18T08:35:08;12.87;;;3.90;;
42514;SDS011;28144;49.920;18.730;2023-05-18T08:37:34;12.87;;;3.90;;
42514;SDS011;28144;49.920;18.730;2023-05-18T08:42:33;17.07;;;3.23;;
42514;SDS011;28144;49.920;18.730;2023-05-18T08:47:48;19.35;;;6.35;;
42514;SDS011;28144;49.920;18.730;2023-05-18T08:50:15;13.60;;;5.55;;
42514;SDS011;28144;49.920;18.730;2023-05-18T08:52:45;14.57;;;4.40;;
42514;SDS011;28144;49.920;18.730;2023-05-18T08:55:11;10.57;;;3.53;;
42514;SDS011;28144;49.920;18.730;2023-05-18T08:57:38;13.23;;;4.40;;
42514;SDS011;28144;49.920;18.730;2023-05-18T09:00:04;10.75;;;4.40;;
42514;SDS011;28144;49.920;18.730;2023-05-18T09:02:32;9.77;;;5.23;;
42514;SDS011;28144;49.920;18.730;2023-05-18T09:04:58;14.83;;;4.73;;
42514;SDS011;28144;49.920;18.730;2023-05-18T09:07:23;10.30;;;4.53;;
42514;SDS011;28144;49.920;18.730;2023-05-18T09:09:51;15.87;;;4.53;;
42514;SDS011;28144;49.920;18.730;2023-05-18T09:12:19;21.80;;;5.00;;
42514;SDS011;28144;49.920;18.730;2023-05-18T09:14:47;11.03;;;3.80;;
42514;SDS011;28144;49.920;18.730;2023-05-18T09:17:12;12.60;;;4.37;;
42514;SDS011;28144;49.920;18.730;2023-05-18T09:19:39;13.48;;;4.38;;
42514;SDS011;28144;49.920;18.730;2023-05-18T09:22:05;14.07;;;4.27;;
42514;SDS011;28144;49.920;18.730;2023-05-18T09:24:32;13.50;;;5.07;;
42514;SDS011;28144;49.920;18.730;2023-05-18T09:29:24;11.18;;;5.10;;
42514;SDS011;28144;49.920;18.730;2023-05-18T09:31:50;24.37;;;5.47;;
42514;SDS011;28144;49.920;18.730;2023-05-18T09:34:16;23.67;;;5.25;;
42514;SDS011;28144;49.920;18.730;2023-05-18T09:36:50;14.73;;;5.43;;
42514;SDS011;28144;49.920;18.730;2023-05-18T09:39:21;24.30;;;8.40;;
42514;SDS011;28144;49.920;18.730;2023-05-18T09:41:47;12.97;;;5.73;;
42514;SDS011;28144;49.920;18.730;2023-05-18T09:44:27;19.47;;;6.93;;
42514;SDS011;28144;49.920;18.730;2023-05-18T09:46:55;14.00;;;4.90;;
42514;SDS011;28144;49.920;18.730;2023-05-18T09:49:21;12.05;;;4.93;;
42514;SDS011;28144;49.920;18.730;2023-05-18T09:51:47;8.80;;;3.73;;
42514;SDS011;28144;49.920;18.730;2023-05-18T09:54:13;19.15;;;2.95;;
42514;SDS011;28144;49.920;18.730;2023-05-18T09:56:38;7.87;;;3.40;;
42514;SDS011;28144;49.920;18.730;2023-05-18T09:59:11;14.47;;;4.97;;
42514;SDS011;28144;49.920;18.730;2023-05-18T10:04:38;6.20;;;2.57;;
42514;SDS011;28144;49.920;18.730;2023-05-18T10:07:10;10.73;;;3.50;;
42514;SDS011;28144;49.920;18.730;2023-05-18T10:09:40;13.27;;;3.57;;
42514;SDS011;28144;49.920;18.730;2023-05-18T10:12:14;13.37;;;3.80;;
42514;SDS011;28144;49.920;18.730;2023-05-18T10:14:45;7.23;;;2.97;;
42514;SDS011;28144;49.920;18.730;2023-05-18T10:17:11;9.23;;;3.33;;
42514;SDS011;28144;49.920;18.730;2023-05-18T10:22:04;9.07;;;3.05;;
42514;SDS011;28144;49.920;18.730;2023-05-18T10:24:32;16.58;;;5.38;;
42514;SDS011;28144;49.920;18.730;2023-05-18T10:27:00;11.17;;;4.90;;
42514;SDS011;28144;49.920;18.730;2023-05-18T10:29:28;5.07;;;2.20;;
42514;SDS011;28144;49.920;18.730;2023-05-18T10:31:54;12.57;;;4.17;;
42514;SDS011;28144;49.920;18.730;2023-05-18T10:34:21;11.87;;;3.50;;
42514;SDS011;28144;49.920;18.730;2023-05-18T10:36:48;12.47;;;3.43;;
42514;SDS011;28144;49.920;18.730;2023-05-18T10:39:15;9.88;;;2.72;;
42514;SDS011;28144;49.920;18.730;2023-05-18T10:41:41;8.93;;;3.13;;
42514;SDS011;28144;49.920;18.730;2023-05-18T10:44:08;14.67;;;3.87;;
42514;SDS011;28144;49.920;18.730;2023-05-18T10:46:34;11.07;;;3.93;;
42514;SDS011;28144;49.920;18.730;2023-05-18T10:51:27;10.20;;;2.80;;
42514;SDS011;28144;49.920;18.730;2023-05-18T10:53:54;15.87;;;4.20;;
42514;SDS011;28144;49.920;18.730;2023-05-18T10:56:25;13.60;;;3.63;;
42514;SDS011;28144;49.920;18.730;2023-05-18T10:58:53;9.53;;;3.07;;
42514;SDS011;28144;49.920;18.730;2023-05-18T11:01:20;9.40;;;3.43;;
42514;SDS011;28144;49.920;18.730;2023-05-18T11:03:47;16.30;;;4.65;;
42514;SDS011;28144;49.920;18.730;2023-05-18T11:06:13;11.38;;;3.92;;
42514;SDS011;28144;49.920;18.730;2023-05-18T11:08:45;14.25;;;4.40;;
42514;SDS011;28144;49.920;18.730;2023-05-18T11:11:11;13.47;;;3.00;;
42514;SDS011;28144;49.920;18.730;2023-05-18T11:13:42;8.83;;;3.20;;
42514;SDS011;28144;49.920;18.730;2023-05-18T11:16:08;11.03;;;3.50;;
42514;SDS011;28144;49.920;18.730;2023-05-18T11:18:46;9.20;;;3.80;;
42514;SDS011;28144;49.920;18.730;2023-05-18T11:26:45;12.50;;;4.23;;
42514;SDS011;28144;49.920;18.730;2023-05-18T11:29:17;9.70;;;3.07;;
42514;SDS011;28144;49.920;18.730;2023-05-18T11:31:47;11.93;;;4.20;;
42514;SDS011;28144;49.920;18.730;2023-05-18T11:39:40;12.07;;;3.63;;
42514;SDS011;28144;49.920;18.730;2023-05-18T11:42:09;12.73;;;4.47;;
42514;SDS011;28144;49.920;18.730;2023-05-18T11:44:36;17.63;;;4.07;;
42514;SDS011;28144;49.920;18.730;2023-05-18T11:47:07;9.93;;;3.60;;
42514;SDS011;28144;49.920;18.730;2023-05-18T11:49:47;9.97;;;3.40;;
42514;SDS011;28144;49.920;18.730;2023-05-18T11:52:22;10.20;;;2.77;;
42514;SDS011;28144;49.920;18.730;2023-05-18T11:54:50;6.63;;;2.40;;
42514;SDS011;28144;49.920;18.730;2023-05-18T11:57:17;10.77;;;3.10;;
42514;SDS011;28144;49.920;18.730;2023-05-18T11:59:47;11.50;;;3.40;;
42514;SDS011;28144;49.920;18.730;2023-05-18T12:02:20;9.13;;;3.00;;
42514;SDS011;28144;49.920;18.730;2023-05-18T12:04:52;1.97;;;1.03;;
42514;SDS011;28144;49.920;18.730;2023-05-18T12:07:19;9.20;;;3.13;;
42514;SDS011;28144;49.920;18.730;2023-05-18T12:09:45;7.50;;;2.60;;
42514;SDS011;28144;49.920;18.730;2023-05-18T12:12:12;12.88;;;6.07;;
42514;SDS011;28144;49.920;18.730;2023-05-18T12:14:54;11.87;;;3.97;;
42514;SDS011;28144;49.920;18.730;2023-05-18T12:17:37;9.43;;;3.50;;
42514;SDS011;28144;49.920;18.730;2023-05-18T12:20:11;10.63;;;3.90;;
42514;SDS011;28144;49.920;18.730;2023-05-18T12:22:38;8.77;;;4.20;;
42514;SDS011;28144;49.920;18.730;2023-05-18T12:25:05;8.10;;;3.83;;
42514;SDS011;28144;49.920;18.730;2023-05-18T12:27:35;9.55;;;3.35;;
42514;SDS011;28144;49.920;18.730;2023-05-18T12:30:07;12.03;;;4.87;;
42514;SDS011;28144;49.920;18.730;2023-05-18T12:32:33;12.17;;;4.70;;
42514;SDS011;28144;49.920;18.730;2023-05-18T12:34:59;13.43;;;5.67;;
42514;SDS011;28144;49.920;18.730;2023-05-18T12:37:25;13.53;;;4.43;;
42514;SDS011;28144;49.920;18.730;2023-05-18T12:39:51;15.17;;;5.13;;
42514;SDS011;28144;49.920;18.730;2023-05-18T12:42:18;9.93;;;4.93;;
42514;SDS011;28144;49.920;18.730;2023-05-18T12:44:44;10.18;;;4.18;;
42514;SDS011;28144;49.920;18.730;2023-05-18T12:47:13;16.63;;;5.70;;
42514;SDS011;28144;49.920;18.730;2023-05-18T12:49:39;10.57;;;4.70;;
42514;SDS011;28144;49.920;18.730;2023-05-18T12:52:10;15.33;;;6.20;;
42514;SDS011;28144;49.920;18.730;2023-05-18T12:54:51;14.33;;;4.73;;
42514;SDS011;28144;49.920;18.730;2023-05-18T12:57:24;11.50;;;5.10;;
42514;SDS011;28144;49.920;18.730;2023-05-18T12:59:55;10.23;;;4.77;;
42514;SDS011;28144;49.920;18.730;2023-05-18T13:05:00;12.17;;;4.20;;
42514;SDS011;28144;49.920;18.730;2023-05-18T13:07:29;14.63;;;5.50;;
42514;SDS011;28144;49.920;18.730;2023-05-18T13:09:59;18.98;;;7.60;;
42514;SDS011;28144;49.920;18.730;2023-05-18T13:15:10;19.70;;;8.37;;
42514;SDS011;28144;49.920;18.730;2023-05-18T13:17:36;19.07;;;6.33;;
42514;SDS011;28144;49.920;18.730;2023-05-18T13:20:02;13.10;;;6.05;;
42514;SDS011;28144;49.920;18.730;2023-05-18T13:22:36;12.00;;;5.40;;
42514;SDS011;28144;49.920;18.730;2023-05-18T13:25:02;20.50;;;6.90;;
42514;SDS011;28144;49.920;18.730;2023-05-18T13:27:28;12.93;;;5.93;;
42514;SDS011;28144;49.920;18.730;2023-05-18T13:29:53;17.80;;;7.00;;
42514;SDS011;28144;49.920;18.730;2023-05-18T13:32:22;7.57;;;4.37;;
42514;SDS011;28144;49.920;18.730;2023-05-18T13:34:48;17.75;;;5.85;;
42514;SDS011;28144;49.920;18.730;2023-05-18T13:37:14;11.73;;;5.33;;
42514;SDS011;28144;49.920;18.730;2023-05-18T13:39:40;15.50;;;6.50;;
42514;SDS011;28144;49.920;18.730;2023-05-18T13:42:06;8.30;;;2.70;;
42514;SDS011;28144;49.920;18.730;2023-05-18T13:46:59;12.50;;;3.40;;
42514;SDS011;28144;49.920;18.730;2023-05-18T13:49:25;10.53;;;4.07;;
42514;SDS011;28144;49.920;18.730;2023-05-18T13:51:50;14.10;;;4.00;;
42514;SDS011;28144;49.920;18.730;2023-05-18T13:54:18;11.93;;;4.15;;
42514;SDS011;28144;49.920;18.730;2023-05-18T13:59:10;7.82;;;4.03;;
42514;SDS011;28144;49.920;18.730;2023-05-18T14:01:36;10.93;;;4.13;;
42514;SDS011;28144;49.920;18.730;2023-05-18T14:04:02;12.43;;;4.57;;
42514;SDS011;28144;49.920;18.730;2023-05-18T14:06:27;11.37;;;4.33;;
42514;SDS011;28144;49.920;18.730;2023-05-18T14:08:53;15.23;;;4.77;;
42514;SDS011;28144;49.920;18.730;2023-05-18T14:11:20;10.77;;;5.10;;
42514;SDS011;28144;49.920;18.730;2023-05-18T14:13:46;7.87;;;4.10;;
42514;SDS011;28144;49.920;18.730;2023-05-18T14:16:11;15.37;;;5.57;;
42514;SDS011;28144;49.920;18.730;2023-05-18T14:18:40;10.30;;;3.30;;
42514;SDS011;28144;49.920;18.730;2023-05-18T14:21:05;15.90;;;6.03;;
42514;SDS011;28144;49.920;18.730;2023-05-18T14:23:31;13.43;;;4.00;;
42514;SDS011;28144;49.920;18.730;2023-05-18T14:25:57;9.83;;;3.87;;
42514;SDS011;28144;49.920;18.730;2023-05-18T14:28:23;7.67;;;3.77;;
42514;SDS011;28144;49.920;18.730;2023-05-18T14:30:48;10.53;;;3.57;;
42514;SDS011;28144;49.920;18.730;2023-05-18T14:33:14;13.73;;;3.83;;
42514;SDS011;28144;49.920;18.730;2023-05-18T14:35:40;3.77;;;2.37;;
42514;SDS011;28144;49.920;18.730;2023-05-18T14:38:06;7.67;;;2.33;;
42514;SDS011;28144;49.920;18.730;2023-05-18T14:40:31;11.47;;;4.03;;
42514;SDS011;28144;49.920;18.730;2023-05-18T14:42:57;13.17;;;3.80;;
42514;SDS011;28144;49.920;18.730;2023-05-18T14:45:23;9.23;;;4.50;;
42514;SDS011;28144;49.920;18.730;2023-05-18T14:47:49;15.07;;;3.80;;
42514;SDS011;28144;49.920;18.730;2023-05-18T14:50:14;15.10;;;7.60;;
42514;SDS011;28144;49.920;18.730;2023-05-18T14:52:41;10.68;;;4.82;;
42514;SDS011;28144;49.920;18.730;2023-05-18T14:55:06;5.80;;;3.70;;
42514;SDS011;28144;49.920;18.730;2023-05-18T14:57:33;16.77;;;6.77;;
42514;SDS011;28144;49.920;18.730;2023-05-18T14:59:59;13.65;;;5.72;;
42514;SDS011;28144;49.920;18.730;2023-05-18T15:02:40;9.47;;;4.47;;
42514;SDS011;28144;49.920;18.730;2023-05-18T15:05:30;14.77;;;6.07;;
42514;SDS011;28144;49.920;18.730;2023-05-18T15:08:04;15.83;;;6.63;;
42514;SDS011;28144;49.920;18.730;2023-05-18T15:10:30;9.83;;;4.13;;
42514;SDS011;28144;49.920;18.730;2023-05-18T15:19:45;13.00;;;6.30;;
42514;SDS011;28144;49.920;18.730;2023-05-18T15:24:48;15.20;;;6.00;;
42514;SDS011;28144;49.920;18.730;2023-05-18T15:27:14;10.03;;;4.27;;
42514;SDS011;28144;49.920;18.730;2023-05-18T15:29:41;11.18;;;5.00;;
42514;SDS011;28144;49.920;18.730;2023-05-18T15:32:07;8.98;;;3.63;;
42514;SDS011;28144;49.920;18.730;2023-05-18T15:34:33;12.30;;;5.38;;
42514;SDS011;28144;49.920;18.730;2023-05-18T15:36:59;15.15;;;4.63;;
42514;SDS011;28144;49.920;18.730;2023-05-18T15:39:26;7.87;;;3.93;;